sensor_id;sensor_type;location;lat;lon;timestamp;temperature;humidity
16347;DHT22;8283;48.504;13.734;2023-02-01T00:00:14;8.80;67.20
16347;DHT22;8283;48.504;13.734;2023-02-01T00:02:59;8.90;68.00
16347;DHT22;8283;48.504;13.734;2023-02-01T00:05:43;8.90;67.40
16347;DHT22;8283;48.504;13.734;2023-02-01T00:08:28;8.90;67.40
16347;DHT22;8283;48.504;13.734;2023-02-01T00:11:12;8.90;67.30
16347;DHT22;8283;48.504;13.734;2023-02-01T00:13:57;8.90;67.30
16347;DHT22;8283;48.504;13.734;2023-02-01T00:16:42;8.90;68.00
16347;DHT22;8283;48.504;13.734;2023-02-01T00:19:26;8.90;67.30
16347;DHT22;8283;48.504;13.734;2023-02-01T00:22:10;8.90;67.40
16347;DHT22;8283;48.504;13.734;2023-02-01T00:24:54;8.90;67.30
16347;DHT22;8283;48.504;13.734;2023-02-01T00:27:39;8.90;67.30
16347;DHT22;8283;48.504;13.734;2023-02-01T00:30:23;8.90;67.30
16347;DHT22;8283;48.504;13.734;2023-02-01T00:33:07;9.00;67.40
16347;DHT22;8283;48.504;13.734;2023-02-01T00:36:00;9.00;67.40
16347;DHT22;8283;48.504;13.734;2023-02-01T00:38:45;9.00;67.60
16347;DHT22;8283;48.504;13.734;2023-02-01T00:41:30;9.00;67.40
16347;DHT22;8283;48.504;13.734;2023-02-01T00:44:15;9.00;67.30
16347;DHT22;8283;48.504;13.734;2023-02-01T00:47:00;9.00;67.40
16347;DHT22;8283;48.504;13.734;2023-02-01T00:49:44;9.10;67.40
16347;DHT22;8283;48.504;13.734;2023-02-01T00:52:29;9.10;67.50
16347;DHT22;8283;48.504;13.734;2023-02-01T00:55:13;9.10;67.30
16347;DHT22;8283;48.504;13.734;2023-02-01T00:57:58;9.10;67.40
16347;DHT22;8283;48.504;13.734;2023-02-01T01:00:42;9.10;67.40
16347;DHT22;8283;48.504;13.734;2023-02-01T01:03:26;9.10;67.30
16347;DHT22;8283;48.504;13.734;2023-02-01T01:06:20;9.10;67.40
16347;DHT22;8283;48.504;13.734;2023-02-01T01:09:06;9.20;67.80
16347;DHT22;8283;48.504;13.734;2023-02-01T01:11:51;9.20;67.20
16347;DHT22;8283;48.504;13.734;2023-02-01T01:14:36;9.20;67.20
16347;DHT22;8283;48.504;13.734;2023-02-01T01:17:20;9.20;67.50
16347;DHT22;8283;48.504;13.734;2023-02-01T01:20:05;9.20;67.40
16347;DHT22;8283;48.504;13.734;2023-02-01T01:22:49;9.20;67.50
16347;DHT22;8283;48.504;13.734;2023-02-01T01:25:40;9.20;67.50
16347;DHT22;8283;48.504;13.734;2023-02-01T01:28:25;9.30;67.70
16347;DHT22;8283;48.504;13.734;2023-02-01T01:31:11;9.30;67.50
16347;DHT22;8283;48.504;13.734;2023-02-01T01:33:58;9.30;67.50
16347;DHT22;8283;48.504;13.734;2023-02-01T01:36:43;9.30;67.70
16347;DHT22;8283;48.504;13.734;2023-02-01T01:39:27;9.30;67.60
16347;DHT22;8283;48.504;13.734;2023-02-01T01:42:11;9.30;67.60
16347;DHT22;8283;48.504;13.734;2023-02-01T01:45:03;9.30;67.60
16347;DHT22;8283;48.504;13.734;2023-02-01T01:47:52;9.30;67.60
16347;DHT22;8283;48.504;13.734;2023-02-01T01:50:46;9.30;67.50
16347;DHT22;8283;48.504;13.734;2023-02-01T01:53:38;9.30;67.60
16347;DHT22;8283;48.504;13.734;2023-02-01T01:56:25;9.40;67.50
16347;DHT22;8283;48.504;13.734;2023-02-01T01:59:11;9.40;67.30
16347;DHT22;8283;48.504;13.734;2023-02-01T02:01:56;9.40;67.20
16347;DHT22;8283;48.504;13.734;2023-02-01T02:04:41;9.40;67.20
16347;DHT22;8283;48.504;13.734;2023-02-01T02:07:33;9.40;67.50
16347;DHT22;8283;48.504;13.734;2023-02-01T02:10:19;9.40;67.60
16347;DHT22;8283;48.504;13.734;2023-02-01T02:13:03;9.40;67.40
16347;DHT22;8283;48.504;13.734;2023-02-01T02:19:36;9.40;67.90
16347;DHT22;8283;48.504;13.734;2023-02-01T02:35:33;9.50;67.20
16347;DHT22;8283;48.504;13.734;2023-02-01T02:48:19;9.60;67.30
16347;DHT22;8283;48.504;13.734;2023-02-01T02:51:25;9.60;67.30
16347;DHT22;8283;48.504;13.734;2023-02-01T02:54:34;9.60;67.30
16347;DHT22;8283;48.504;13.734;2023-02-01T02:57:37;9.60;67.30
16347;DHT22;8283;48.504;13.734;2023-02-01T03:00:42;9.60;67.80
16347;DHT22;8283;48.504;13.734;2023-02-01T03:03:46;9.60;67.20
16347;DHT22;8283;48.504;13.734;2023-02-01T03:06:55;9.60;67.10
16347;DHT22;8283;48.504;13.734;2023-02-01T03:09:41;9.60;67.20
16347;DHT22;8283;48.504;13.734;2023-02-01T03:12:28;9.60;67.30
16347;DHT22;8283;48.504;13.734;2023-02-01T03:15:38;9.60;67.30
16347;DHT22;8283;48.504;13.734;2023-02-01T03:18:37;9.60;67.30
16347;DHT22;8283;48.504;13.734;2023-02-01T03:21:31;9.60;67.30
16347;DHT22;8283;48.504;13.734;2023-02-01T03:27:27;9.70;67.80
16347;DHT22;8283;48.504;13.734;2023-02-01T03:33:06;9.70;67.00
16347;DHT22;8283;48.504;13.734;2023-02-01T03:36:18;9.70;67.10
16347;DHT22;8283;48.504;13.734;2023-02-01T03:39:12;9.70;67.40
16347;DHT22;8283;48.504;13.734;2023-02-01T03:42:03;9.70;67.10
16347;DHT22;8283;48.504;13.734;2023-02-01T03:45:19;9.70;67.20
16347;DHT22;8283;48.504;13.734;2023-02-01T03:48:08;9.70;67.40
16347;DHT22;8283;48.504;13.734;2023-02-01T03:50:57;9.70;67.20
16347;DHT22;8283;48.504;13.734;2023-02-01T03:53:43;9.70;67.10
16347;DHT22;8283;48.504;13.734;2023-02-01T03:56:31;9.70;67.00
16347;DHT22;8283;48.504;13.734;2023-02-01T03:59:16;9.70;66.90
16347;DHT22;8283;48.504;13.734;2023-02-01T04:02:01;9.70;66.90
16347;DHT22;8283;48.504;13.734;2023-02-01T04:04:45;9.80;66.90
16347;DHT22;8283;48.504;13.734;2023-02-01T04:07:33;9.80;67.10
16347;DHT22;8283;48.504;13.734;2023-02-01T04:10:17;9.80;67.00
16347;DHT22;8283;48.504;13.734;2023-02-01T04:13:02;9.80;67.10
16347;DHT22;8283;48.504;13.734;2023-02-01T04:15:47;9.80;66.90
16347;DHT22;8283;48.504;13.734;2023-02-01T04:18:34;9.90;67.00
16347;DHT22;8283;48.504;13.734;2023-02-01T04:21:19;9.90;66.90
16347;DHT22;8283;48.504;13.734;2023-02-01T04:24:03;9.90;66.80
16347;DHT22;8283;48.504;13.734;2023-02-01T04:26:48;9.90;67.50
16347;DHT22;8283;48.504;13.734;2023-02-01T04:29:32;9.90;66.90
16347;DHT22;8283;48.504;13.734;2023-02-01T04:32:17;9.90;66.80
16347;DHT22;8283;48.504;13.734;2023-02-01T04:35:02;9.90;66.80
16347;DHT22;8283;48.504;13.734;2023-02-01T04:37:46;9.90;66.80
16347;DHT22;8283;48.504;13.734;2023-02-01T04:40:31;9.90;66.80
16347;DHT22;8283;48.504;13.734;2023-02-01T04:43:16;9.90;66.80
16347;DHT22;8283;48.504;13.734;2023-02-01T04:46:01;9.90;66.70
16347;DHT22;8283;48.504;13.734;2023-02-01T04:48:46;9.90;66.80
16347;DHT22;8283;48.504;13.734;2023-02-01T04:51:30;9.90;66.80
16347;DHT22;8283;48.504;13.734;2023-02-01T04:54:15;9.90;66.90
16347;DHT22;8283;48.504;13.734;2023-02-01T04:56:59;9.90;66.80
16347;DHT22;8283;48.504;13.734;2023-02-01T04:59:44;10.00;66.80
16347;DHT22;8283;48.504;13.734;2023-02-01T05:02:28;9.90;66.80
16347;DHT22;8283;48.504;13.734;2023-02-01T05:05:12;9.90;66.90
16347;DHT22;8283;48.504;13.734;2023-02-01T05:07:56;9.90;66.90
16347;DHT22;8283;48.504;13.734;2023-02-01T05:10:41;9.90;66.90
16347;DHT22;8283;48.504;13.734;2023-02-01T05:13:25;9.90;66.80
16347;DHT22;8283;48.504;13.734;2023-02-01T05:16:28;10.00;66.80
16347;DHT22;8283;48.504;13.734;2023-02-01T05:19:12;10.00;66.80
16347;DHT22;8283;48.504;13.734;2023-02-01T05:21:57;9.90;66.80
16347;DHT22;8283;48.504;13.734;2023-02-01T05:24:41;9.90;66.80
16347;DHT22;8283;48.504;13.734;2023-02-01T05:27:28;10.00;66.90
16347;DHT22;8283;48.504;13.734;2023-02-01T05:30:13;10.00;66.90
16347;DHT22;8283;48.504;13.734;2023-02-01T05:32:57;10.00;66.80
16347;DHT22;8283;48.504;13.734;2023-02-01T05:35:41;10.00;66.80
16347;DHT22;8283;48.504;13.734;2023-02-01T05:38:26;10.00;66.80
16347;DHT22;8283;48.504;13.734;2023-02-01T05:41:10;10.00;66.70
16347;DHT22;8283;48.504;13.734;2023-02-01T05:43:55;10.00;66.70
16347;DHT22;8283;48.504;13.734;2023-02-01T05:46:39;10.00;66.60
16347;DHT22;8283;48.504;13.734;2023-02-01T05:49:23;10.10;66.50
16347;DHT22;8283;48.504;13.734;2023-02-01T05:52:07;10.00;66.50
16347;DHT22;8283;48.504;13.734;2023-02-01T05:54:52;10.00;66.40
16347;DHT22;8283;48.504;13.734;2023-02-01T05:57:37;10.10;66.50
16347;DHT22;8283;48.504;13.734;2023-02-01T06:00:21;10.10;66.50
16347;DHT22;8283;48.504;13.734;2023-02-01T06:03:06;10.10;66.40
16347;DHT22;8283;48.504;13.734;2023-02-01T06:05:50;10.10;66.40
16347;DHT22;8283;48.504;13.734;2023-02-01T06:08:35;10.10;66.50
16347;DHT22;8283;48.504;13.734;2023-02-01T06:11:19;10.10;66.50
16347;DHT22;8283;48.504;13.734;2023-02-01T06:14:03;10.10;66.50
16347;DHT22;8283;48.504;13.734;2023-02-01T06:16:47;10.10;66.50
16347;DHT22;8283;48.504;13.734;2023-02-01T06:19:32;10.10;66.40
16347;DHT22;8283;48.504;13.734;2023-02-01T06:22:16;10.10;66.40
16347;DHT22;8283;48.504;13.734;2023-02-01T06:25:02;10.10;66.40
16347;DHT22;8283;48.504;13.734;2023-02-01T06:27:47;10.10;66.40
16347;DHT22;8283;48.504;13.734;2023-02-01T06:30:32;10.10;66.30
16347;DHT22;8283;48.504;13.734;2023-02-01T06:33:16;10.10;66.30
16347;DHT22;8283;48.504;13.734;2023-02-01T06:36:03;10.20;66.30
16347;DHT22;8283;48.504;13.734;2023-02-01T06:38:48;10.10;66.20
16347;DHT22;8283;48.504;13.734;2023-02-01T06:41:32;10.10;66.30
16347;DHT22;8283;48.504;13.734;2023-02-01T06:44:19;10.10;66.30
16347;DHT22;8283;48.504;13.734;2023-02-01T06:47:04;10.10;66.30
16347;DHT22;8283;48.504;13.734;2023-02-01T06:49:48;10.20;66.30
16347;DHT22;8283;48.504;13.734;2023-02-01T06:52:32;10.10;66.10
16347;DHT22;8283;48.504;13.734;2023-02-01T06:55:16;10.10;66.20
16347;DHT22;8283;48.504;13.734;2023-02-01T06:58:00;10.10;66.10
16347;DHT22;8283;48.504;13.734;2023-02-01T07:00:46;10.10;66.20
16347;DHT22;8283;48.504;13.734;2023-02-01T07:03:30;10.10;66.10
16347;DHT22;8283;48.504;13.734;2023-02-01T07:06:15;10.10;66.10
16347;DHT22;8283;48.504;13.734;2023-02-01T07:08:59;10.10;66.10
16347;DHT22;8283;48.504;13.734;2023-02-01T07:11:44;10.10;66.10
16347;DHT22;8283;48.504;13.734;2023-02-01T07:14:29;10.10;66.00
16347;DHT22;8283;48.504;13.734;2023-02-01T07:17:13;10.10;66.10
16347;DHT22;8283;48.504;13.734;2023-02-01T07:19:58;10.20;66.20
16347;DHT22;8283;48.504;13.734;2023-02-01T07:22:45;10.20;66.20
16347;DHT22;8283;48.504;13.734;2023-02-01T07:25:29;10.20;66.20
16347;DHT22;8283;48.504;13.734;2023-02-01T07:28:14;10.20;66.20
16347;DHT22;8283;48.504;13.734;2023-02-01T07:31:07;10.20;66.30
16347;DHT22;8283;48.504;13.734;2023-02-01T07:33:52;10.20;66.30
16347;DHT22;8283;48.504;13.734;2023-02-01T07:36:36;10.20;66.10
16347;DHT22;8283;48.504;13.734;2023-02-01T07:39:20;10.20;66.20
16347;DHT22;8283;48.504;13.734;2023-02-01T07:42:06;10.20;66.30
16347;DHT22;8283;48.504;13.734;2023-02-01T07:44:50;10.20;66.30
16347;DHT22;8283;48.504;13.734;2023-02-01T07:47:35;10.30;66.50
16347;DHT22;8283;48.504;13.734;2023-02-01T07:50:19;10.30;66.50
16347;DHT22;8283;48.504;13.734;2023-02-01T07:53:04;10.30;66.50
16347;DHT22;8283;48.504;13.734;2023-02-01T07:55:48;10.20;66.50
16347;DHT22;8283;48.504;13.734;2023-02-01T07:58:33;10.20;66.50
16347;DHT22;8283;48.504;13.734;2023-02-01T08:01:20;10.30;66.80
16347;DHT22;8283;48.504;13.734;2023-02-01T08:04:04;10.20;66.70
16347;DHT22;8283;48.504;13.734;2023-02-01T08:06:49;10.20;66.70
16347;DHT22;8283;48.504;13.734;2023-02-01T08:09:33;10.40;67.00
16347;DHT22;8283;48.504;13.734;2023-02-01T08:12:17;10.20;66.90
16347;DHT22;8283;48.504;13.734;2023-02-01T08:15:02;10.10;66.70
16347;DHT22;8283;48.504;13.734;2023-02-01T08:17:50;10.10;67.00
16347;DHT22;8283;48.504;13.734;2023-02-01T08:20:35;10.10;67.00
16347;DHT22;8283;48.504;13.734;2023-02-01T08:23:21;10.00;67.60
16347;DHT22;8283;48.504;13.734;2023-02-01T08:26:13;10.00;67.20
16347;DHT22;8283;48.504;13.734;2023-02-01T08:29:00;10.00;67.00
16347;DHT22;8283;48.504;13.734;2023-02-01T08:31:44;10.00;66.90
16347;DHT22;8283;48.504;13.734;2023-02-01T08:34:29;10.00;67.00
16347;DHT22;8283;48.504;13.734;2023-02-01T08:37:13;10.00;66.90
16347;DHT22;8283;48.504;13.734;2023-02-01T08:39:58;9.90;67.00
16347;DHT22;8283;48.504;13.734;2023-02-01T08:42:42;10.00;67.00
16347;DHT22;8283;48.504;13.734;2023-02-01T08:45:35;9.90;67.00
16347;DHT22;8283;48.504;13.734;2023-02-01T08:48:19;9.90;67.00
16347;DHT22;8283;48.504;13.734;2023-02-01T08:51:11;9.90;67.10
16347;DHT22;8283;48.504;13.734;2023-02-01T08:53:56;9.90;67.60
16347;DHT22;8283;48.504;13.734;2023-02-01T08:56:40;9.90;67.90
16347;DHT22;8283;48.504;13.734;2023-02-01T08:59:25;9.90;67.30
16347;DHT22;8283;48.504;13.734;2023-02-01T09:02:18;9.90;67.50
16347;DHT22;8283;48.504;13.734;2023-02-01T09:05:03;9.90;67.80
16347;DHT22;8283;48.504;13.734;2023-02-01T09:07:48;9.90;67.60
16347;DHT22;8283;48.504;13.734;2023-02-01T09:10:34;9.90;67.70
16347;DHT22;8283;48.504;13.734;2023-02-01T09:13:18;9.90;67.60
16347;DHT22;8283;48.504;13.734;2023-02-01T09:16:03;10.00;67.90
16347;DHT22;8283;48.504;13.734;2023-02-01T09:18:48;10.00;68.00
16347;DHT22;8283;48.504;13.734;2023-02-01T09:21:32;10.10;68.00
16347;DHT22;8283;48.504;13.734;2023-02-01T09:24:16;10.10;68.00
16347;DHT22;8283;48.504;13.734;2023-02-01T09:27:01;10.10;68.10
16347;DHT22;8283;48.504;13.734;2023-02-01T09:29:46;10.20;68.10
16347;DHT22;8283;48.504;13.734;2023-02-01T09:32:34;10.20;68.00
16347;DHT22;8283;48.504;13.734;2023-02-01T09:35:18;10.20;68.70
16347;DHT22;8283;48.504;13.734;2023-02-01T09:38:02;10.10;68.20
16347;DHT22;8283;48.504;13.734;2023-02-01T09:40:47;10.00;68.20
16347;DHT22;8283;48.504;13.734;2023-02-01T09:44:08;9.90;68.00
16347;DHT22;8283;48.504;13.734;2023-02-01T09:46:42;9.80;68.20
16347;DHT22;8283;48.504;13.734;2023-02-01T09:49:30;9.70;68.10
16347;DHT22;8283;48.504;13.734;2023-02-01T09:52:16;9.60;68.40
16347;DHT22;8283;48.504;13.734;2023-02-01T09:55:06;9.60;68.60
16347;DHT22;8283;48.504;13.734;2023-02-01T10:00:38;9.40;68.60
16347;DHT22;8283;48.504;13.734;2023-02-01T10:03:33;9.40;68.90
16347;DHT22;8283;48.504;13.734;2023-02-01T10:18:55;9.30;69.50
16347;DHT22;8283;48.504;13.734;2023-02-01T10:24:42;9.40;69.20
16347;DHT22;8283;48.504;13.734;2023-02-01T10:27:36;9.40;69.20
16347;DHT22;8283;48.504;13.734;2023-02-01T10:30:29;9.50;70.00
16347;DHT22;8283;48.504;13.734;2023-02-01T10:33:18;9.60;69.80
16347;DHT22;8283;48.504;13.734;2023-02-01T10:36:15;9.70;69.50
16347;DHT22;8283;48.504;13.734;2023-02-01T10:39:02;9.80;69.50
16347;DHT22;8283;48.504;13.734;2023-02-01T10:41:48;9.90;69.50
16347;DHT22;8283;48.504;13.734;2023-02-01T10:44:40;9.90;69.30
16347;DHT22;8283;48.504;13.734;2023-02-01T10:47:27;10.00;69.50
16347;DHT22;8283;48.504;13.734;2023-02-01T10:53:23;10.10;69.20
16347;DHT22;8283;48.504;13.734;2023-02-01T10:56:10;10.20;69.10
16347;DHT22;8283;48.504;13.734;2023-02-01T10:59:04;10.20;68.90
16347;DHT22;8283;48.504;13.734;2023-02-01T11:01:50;10.30;69.20
16347;DHT22;8283;48.504;13.734;2023-02-01T11:04:41;10.30;69.10
16347;DHT22;8283;48.504;13.734;2023-02-01T11:07:28;10.40;69.40
16347;DHT22;8283;48.504;13.734;2023-02-01T11:10:36;10.40;69.40
16347;DHT22;8283;48.504;13.734;2023-02-01T11:13:22;10.50;69.60
16347;DHT22;8283;48.504;13.734;2023-02-01T11:16:13;10.60;69.70
16347;DHT22;8283;48.504;13.734;2023-02-01T11:18:59;10.70;69.90
16347;DHT22;8283;48.504;13.734;2023-02-01T11:21:44;10.80;70.10
16347;DHT22;8283;48.504;13.734;2023-02-01T11:24:35;10.90;69.90
16347;DHT22;8283;48.504;13.734;2023-02-01T11:27:23;11.00;69.40
16347;DHT22;8283;48.504;13.734;2023-02-01T11:30:16;11.10;69.00
16347;DHT22;8283;48.504;13.734;2023-02-01T11:33:03;11.10;68.60
16347;DHT22;8283;48.504;13.734;2023-02-01T11:35:49;11.10;68.40
16347;DHT22;8283;48.504;13.734;2023-02-01T11:38:34;11.10;68.50
16347;DHT22;8283;48.504;13.734;2023-02-01T11:41:25;11.10;68.50
16347;DHT22;8283;48.504;13.734;2023-02-01T11:44:30;11.10;68.90
16347;DHT22;8283;48.504;13.734;2023-02-01T11:47:25;11.10;68.60
16347;DHT22;8283;48.504;13.734;2023-02-01T11:50:19;11.10;68.50
16347;DHT22;8283;48.504;13.734;2023-02-01T11:53:20;11.10;68.60
16347;DHT22;8283;48.504;13.734;2023-02-01T11:56:25;11.00;68.50
16347;DHT22;8283;48.504;13.734;2023-02-01T12:21:28;11.30;68.30
16347;DHT22;8283;48.504;13.734;2023-02-01T12:28:01;11.30;67.30
16347;DHT22;8283;48.504;13.734;2023-02-01T12:31:48;11.30;67.80
16347;DHT22;8283;48.504;13.734;2023-02-01T12:37:40;11.10;66.90
16347;DHT22;8283;48.504;13.734;2023-02-01T12:44:01;11.00;67.60
16347;DHT22;8283;48.504;13.734;2023-02-01T12:46:58;10.80;67.00
16347;DHT22;8283;48.504;13.734;2023-02-01T12:50:03;10.60;67.00
16347;DHT22;8283;48.504;13.734;2023-02-01T12:52:51;10.40;67.30
16347;DHT22;8283;48.504;13.734;2023-02-01T12:55:43;10.20;66.90
16347;DHT22;8283;48.504;13.734;2023-02-01T13:01:38;9.80;67.60
16347;DHT22;8283;48.504;13.734;2023-02-01T13:04:32;9.70;67.80
16347;DHT22;8283;48.504;13.734;2023-02-01T13:07:26;9.60;68.30
16347;DHT22;8283;48.504;13.734;2023-02-01T13:10:41;9.50;68.40
16347;DHT22;8283;48.504;13.734;2023-02-01T13:16:48;9.50;69.30
16347;DHT22;8283;48.504;13.734;2023-02-01T13:19:56;9.50;68.90
16347;DHT22;8283;48.504;13.734;2023-02-01T13:22:45;9.60;69.30
16347;DHT22;8283;48.504;13.734;2023-02-01T13:25:48;9.60;69.10
16347;DHT22;8283;48.504;13.734;2023-02-01T13:28:47;9.70;69.70
16347;DHT22;8283;48.504;13.734;2023-02-01T13:38:09;9.90;69.40
16347;DHT22;8283;48.504;13.734;2023-02-01T13:41:14;10.00;69.80
16347;DHT22;8283;48.504;13.734;2023-02-01T13:44:12;10.00;69.70
16347;DHT22;8283;48.504;13.734;2023-02-01T13:47:01;10.50;69.60
16347;DHT22;8283;48.504;13.734;2023-02-01T13:49:46;10.10;69.50
16347;DHT22;8283;48.504;13.734;2023-02-01T13:52:40;10.10;69.20
16347;DHT22;8283;48.504;13.734;2023-02-01T13:55:38;10.20;69.40
16347;DHT22;8283;48.504;13.734;2023-02-01T13:58:36;10.20;69.50
16347;DHT22;8283;48.504;13.734;2023-02-01T14:04:46;10.30;69.30
16347;DHT22;8283;48.504;13.734;2023-02-01T14:07:30;10.40;68.90
16347;DHT22;8283;48.504;13.734;2023-02-01T14:13:41;10.50;68.90
16347;DHT22;8283;48.504;13.734;2023-02-01T14:16:25;10.50;68.50
16347;DHT22;8283;48.504;13.734;2023-02-01T14:19:29;10.50;68.30
16347;DHT22;8283;48.504;13.734;2023-02-01T14:25:16;10.50;68.70
16347;DHT22;8283;48.504;13.734;2023-02-01T14:28:01;10.50;68.80
16347;DHT22;8283;48.504;13.734;2023-02-01T14:30:48;10.50;68.50
16347;DHT22;8283;48.504;13.734;2023-02-01T14:33:33;10.50;68.40
16347;DHT22;8283;48.504;13.734;2023-02-01T14:36:17;10.50;68.50
16347;DHT22;8283;48.504;13.734;2023-02-01T14:39:02;10.50;68.50
16347;DHT22;8283;48.504;13.734;2023-02-01T14:41:47;10.50;68.60
16347;DHT22;8283;48.504;13.734;2023-02-01T14:44:34;10.50;68.60
16347;DHT22;8283;48.504;13.734;2023-02-01T14:50:11;10.50;68.70
16347;DHT22;8283;48.504;13.734;2023-02-01T14:53:15;10.50;68.60
16347;DHT22;8283;48.504;13.734;2023-02-01T14:56:05;10.50;69.10
16347;DHT22;8283;48.504;13.734;2023-02-01T14:58:58;10.50;68.50
16347;DHT22;8283;48.504;13.734;2023-02-01T15:01:53;10.50;68.90
16347;DHT22;8283;48.504;13.734;2023-02-01T15:04:42;10.50;68.90
16347;DHT22;8283;48.504;13.734;2023-02-01T15:07:28;10.50;69.40
16347;DHT22;8283;48.504;13.734;2023-02-01T15:10:13;10.50;68.90
16347;DHT22;8283;48.504;13.734;2023-02-01T15:12:57;10.40;68.70
16347;DHT22;8283;48.504;13.734;2023-02-01T15:15:42;10.40;68.80
16347;DHT22;8283;48.504;13.734;2023-02-01T15:18:26;10.40;68.60
16347;DHT22;8283;48.504;13.734;2023-02-01T15:21:19;10.30;68.00
16347;DHT22;8283;48.504;13.734;2023-02-01T15:24:14;10.20;67.90
16347;DHT22;8283;48.504;13.734;2023-02-01T15:27:04;10.10;67.70
16347;DHT22;8283;48.504;13.734;2023-02-01T15:29:49;10.00;67.60
16347;DHT22;8283;48.504;13.734;2023-02-01T15:32:37;9.90;67.50
16347;DHT22;8283;48.504;13.734;2023-02-01T15:35:43;9.80;67.50
16347;DHT22;8283;48.504;13.734;2023-02-01T15:38:33;9.80;67.80
16347;DHT22;8283;48.504;13.734;2023-02-01T15:41:21;9.80;68.10
16347;DHT22;8283;48.504;13.734;2023-02-01T15:44:21;9.60;67.80
16347;DHT22;8283;48.504;13.734;2023-02-01T15:47:31;9.60;67.90
16347;DHT22;8283;48.504;13.734;2023-02-01T15:50:17;9.50;68.00
16347;DHT22;8283;48.504;13.734;2023-02-01T15:53:03;9.50;67.80
16347;DHT22;8283;48.504;13.734;2023-02-01T15:55:55;9.50;67.80
16347;DHT22;8283;48.504;13.734;2023-02-01T15:58:42;9.40;68.00
16347;DHT22;8283;48.504;13.734;2023-02-01T16:01:29;9.40;67.90
16347;DHT22;8283;48.504;13.734;2023-02-01T16:07:03;9.40;68.20
16347;DHT22;8283;48.504;13.734;2023-02-01T16:10:24;9.10;67.90
16347;DHT22;8283;48.504;13.734;2023-02-01T16:13:09;9.30;68.60
16347;DHT22;8283;48.504;13.734;2023-02-01T16:15:54;9.30;68.10
16347;DHT22;8283;48.504;13.734;2023-02-01T16:18:38;9.40;68.30
16347;DHT22;8283;48.504;13.734;2023-02-01T16:21:22;9.30;68.30
16347;DHT22;8283;48.504;13.734;2023-02-01T16:24:07;9.30;68.60
16347;DHT22;8283;48.504;13.734;2023-02-01T16:26:52;9.30;68.40
16347;DHT22;8283;48.504;13.734;2023-02-01T16:29:36;9.30;68.40
16347;DHT22;8283;48.504;13.734;2023-02-01T16:32:21;9.40;68.60
16347;DHT22;8283;48.504;13.734;2023-02-01T16:35:16;9.40;68.70
16347;DHT22;8283;48.504;13.734;2023-02-01T16:38:05;9.40;68.90
16347;DHT22;8283;48.504;13.734;2023-02-01T16:40:56;9.40;68.60
16347;DHT22;8283;48.504;13.734;2023-02-01T16:43:42;9.40;68.60
16347;DHT22;8283;48.504;13.734;2023-02-01T16:46:31;9.50;68.60
16347;DHT22;8283;48.504;13.734;2023-02-01T16:49:22;9.50;68.60
16347;DHT22;8283;48.504;13.734;2023-02-01T16:52:13;9.50;68.40
16347;DHT22;8283;48.504;13.734;2023-02-01T16:54:59;9.50;68.20
16347;DHT22;8283;48.504;13.734;2023-02-01T16:57:43;9.60;68.30
16347;DHT22;8283;48.504;13.734;2023-02-01T17:00:28;9.60;68.30
16347;DHT22;8283;48.504;13.734;2023-02-01T17:03:15;9.60;68.30
16347;DHT22;8283;48.504;13.734;2023-02-01T17:06:03;9.70;68.30
16347;DHT22;8283;48.504;13.734;2023-02-01T17:08:51;9.50;67.60
16347;DHT22;8283;48.504;13.734;2023-02-01T17:11:36;9.70;68.10
16347;DHT22;8283;48.504;13.734;2023-02-01T17:14:21;9.70;68.10
16347;DHT22;8283;48.504;13.734;2023-02-01T17:17:08;9.80;68.10
16347;DHT22;8283;48.504;13.734;2023-02-01T17:19:53;9.80;68.00
16347;DHT22;8283;48.504;13.734;2023-02-01T17:22:37;9.80;67.70
16347;DHT22;8283;48.504;13.734;2023-02-01T17:25:22;9.80;67.90
16347;DHT22;8283;48.504;13.734;2023-02-01T17:28:06;9.90;67.20
16347;DHT22;8283;48.504;13.734;2023-02-01T17:30:51;9.90;67.40
16347;DHT22;8283;48.504;13.734;2023-02-01T17:33:36;9.90;67.60
16347;DHT22;8283;48.504;13.734;2023-02-01T17:36:20;9.90;67.60
16347;DHT22;8283;48.504;13.734;2023-02-01T17:39:05;9.90;67.60
16347;DHT22;8283;48.504;13.734;2023-02-01T17:41:49;9.90;67.10
16347;DHT22;8283;48.504;13.734;2023-02-01T17:44:34;9.90;67.40
16347;DHT22;8283;48.504;13.734;2023-02-01T17:47:18;10.00;67.50
16347;DHT22;8283;48.504;13.734;2023-02-01T17:50:02;10.00;66.90
16347;DHT22;8283;48.504;13.734;2023-02-01T17:52:47;10.00;65.90
16347;DHT22;8283;48.504;13.734;2023-02-01T17:55:34;10.00;66.80
16347;DHT22;8283;48.504;13.734;2023-02-01T17:58:18;10.00;67.10
16347;DHT22;8283;48.504;13.734;2023-02-01T18:01:03;10.00;66.50
16347;DHT22;8283;48.504;13.734;2023-02-01T18:03:48;10.10;66.40
16347;DHT22;8283;48.504;13.734;2023-02-01T18:06:34;10.10;66.80
16347;DHT22;8283;48.504;13.734;2023-02-01T18:09:18;10.10;66.60
16347;DHT22;8283;48.504;13.734;2023-02-01T18:12:04;10.10;66.90
16347;DHT22;8283;48.504;13.734;2023-02-01T18:14:48;10.10;66.40
16347;DHT22;8283;48.504;13.734;2023-02-01T18:17:33;10.10;66.40
16347;DHT22;8283;48.504;13.734;2023-02-01T18:20:20;10.10;65.90
16347;DHT22;8283;48.504;13.734;2023-02-01T18:23:05;10.10;66.40
16347;DHT22;8283;48.504;13.734;2023-02-01T18:25:50;10.10;66.50
16347;DHT22;8283;48.504;13.734;2023-02-01T18:28:35;10.20;66.10
16347;DHT22;8283;48.504;13.734;2023-02-01T18:31:25;10.20;66.20
16347;DHT22;8283;48.504;13.734;2023-02-01T18:34:09;10.20;66.10
16347;DHT22;8283;48.504;13.734;2023-02-01T18:36:57;10.20;66.40
16347;DHT22;8283;48.504;13.734;2023-02-01T18:39:41;10.20;66.10
16347;DHT22;8283;48.504;13.734;2023-02-01T18:42:26;10.20;65.20
16347;DHT22;8283;48.504;13.734;2023-02-01T18:45:21;10.20;65.70
16347;DHT22;8283;48.504;13.734;2023-02-01T18:48:09;10.20;65.80
16347;DHT22;8283;48.504;13.734;2023-02-01T18:50:54;10.20;65.30
16347;DHT22;8283;48.504;13.734;2023-02-01T18:53:42;10.20;65.80
16347;DHT22;8283;48.504;13.734;2023-02-01T18:56:26;10.30;65.70
16347;DHT22;8283;48.504;13.734;2023-02-01T18:59:11;10.20;65.20
16347;DHT22;8283;48.504;13.734;2023-02-01T19:01:56;10.30;65.50
16347;DHT22;8283;48.504;13.734;2023-02-01T19:04:40;10.30;65.90
16347;DHT22;8283;48.504;13.734;2023-02-01T19:07:24;10.30;65.80
16347;DHT22;8283;48.504;13.734;2023-02-01T19:10:15;10.30;65.80
16347;DHT22;8283;48.504;13.734;2023-02-01T19:13:00;10.40;65.00
16347;DHT22;8283;48.504;13.734;2023-02-01T19:15:44;10.40;65.60
16347;DHT22;8283;48.504;13.734;2023-02-01T19:18:28;10.40;65.70
16347;DHT22;8283;48.504;13.734;2023-02-01T19:21:12;10.40;65.70
16347;DHT22;8283;48.504;13.734;2023-02-01T19:23:57;10.40;65.80
16347;DHT22;8283;48.504;13.734;2023-02-01T19:26:42;10.40;65.80
16347;DHT22;8283;48.504;13.734;2023-02-01T19:29:27;10.40;65.60
16347;DHT22;8283;48.504;13.734;2023-02-01T19:32:13;10.40;65.80
16347;DHT22;8283;48.504;13.734;2023-02-01T19:34:57;10.40;65.70
16347;DHT22;8283;48.504;13.734;2023-02-01T19:37:42;10.40;65.90
16347;DHT22;8283;48.504;13.734;2023-02-01T19:40:26;10.30;66.10
16347;DHT22;8283;48.504;13.734;2023-02-01T19:43:11;10.30;66.00